Alva, FL

12:21 AM EDT on September 02, 2014 (GMT -0400)
Gary & Lori River Oaks Alva | Change Station
CLOSE
Current Station
Personal Weather Station
Location: Alva, FL
Elevation: 11 ft
Nearby Weather Stations

Elev 11 ft 26.71 °N, 81.62 °W | Updated 1 minute ago

Clear
Clear
74.7 °F
Feels Like 72 °F
N
0.0
Wind Variable Wind from SW
Gusts 0.0 mph

Today
High -- | Low -- °F
--% Chance of Precip.
Yesterday
High -- | Low -- °F
Precip. -- in
7:06 AM 7:45 PM
Waxing Crescent, 47% visible
Pressure 30.09 in
Visibility 10.0 miles
Clouds Clear
Heat Index 72 °F
Dew Point 74 °F
Humidity 98%
Rainfall 0.00 in
Snow Depth Not available.
UV 0 out of 12
Pollen 5.20 out of 12
Air Quality Not available.
Flu Activity Not available.
METAR KRSW 020353Z 06005KT 10SM CLR 25/22 A3009 RMK AO2 SLP188 T02500217

More Conditions Fewer Conditions

Pressure 30.09 in
Visibility 10.0 miles
Clouds Clear
Heat Index 72 °F
Dew Point 74 °F
Humidity 98%
Rainfall 0.00 in
Snow Depth Not available.
UV 0 out of 12
Pollen 5.20 out of 12
Air Quality Not available.
Flu Activity Not available.
METAR KRSW 020353Z 06005KT 10SM CLR 25/22 A3009 RMK AO2 SLP188 T02500217

More Conditions Fewer Conditions

10-Day Weather Forecast

Almanac

Astronomy

Sep. 02, 2014 Rise Set
Actual Time 7:06 AM EDT 7:45 PM EDT
Civil Twilight 6:43 AM EDT 8:08 PM EDT
Nautical Twilight 6:15 AM EDT 8:36 PM EDT
Astronomical Twilight 5:47 AM EDT 9:04 PM EDT
Moon 2:10 PM EDT 12:24 AM EDT
Length of Visible Light 13h 25m
Length of Day
12h 38m
Tomorrow will be 1m 31s shorter.
Waxing Crescent, 47% of the Moon is Illuminated
Today
Waxing Crescent
Sep 2
First Quarter
Sep 8
Full
Sep 15
Last Quarter
Sep 24
New

Yesterday's Extremes

State Highs State Lows

Community

WunderPhotos

Upload Photos

1,749,560 photos uploaded!

WunderBlogs® & News

Nearby

Snow Depth

Station Depth Elevation
No new snow has been reported.

Earthquake Activity

City Distance Mag. Time & Date
No recent earthquake activity has been reported nearby.
Minimum magnitude displayed is 2.5.

Coastal Water Temperatures

Place Temperature
Fort Myers, FL 88.0 °F

Nearby Weather Stations